Terminal Aerodrome Forecast
Issued by NWS

Home | Current Version | Previous Version | Text Only | Print | Product List | Glossary On
Versions: 1 2 3 4 5 6 7 8 9 10 11 12
000
FTUS46 KSEW 280500
TAFBFI
TAF
KBFI 280524Z 2806/2906 00000KT P6SM SCT070 SCT250
     FM280800 18006KT P6SM BKN070
     FM281300 18006KT P6SM OVC016
     FM281700 18006KT P6SM BKN026
     FM282000 18006KT P6SM BKN050=

USA.gov is the U.S. government's official web portal to all federal, state and local government web resources and services.